This is the latest recevied weather packets stored in our database for station/object HA2KAB-10. If no packets are shown the sender has not sent any weather packets the latest 10 day(s).
| Time | Temp. | Humidity | Pressure | Rain* | Wind** | Luminosity | Snow |
|---|---|---|---|---|---|---|---|
| 1788336533 | 27.22° C | 35% | 1027.6 hPa | - | - | - | - |
| 1788332992 | 26.11° C | 38% | 1027.3 hPa | - | - | - | - |
| 1788329452 | 25.56° C | 38% | 1027 hPa | - | - | - | - |
| 1788325918 | 25.56° C | 35% | 1027.4 hPa | - | - | - | - |
| 1788325912 | 25.56° C | 35% | 1027.4 hPa | - | - | - | - |
| 1788322372 | 26.11° C | 31% | 1026.7 hPa | - | - | - | - |
| 1788285532 | 26.67° C | 32% | 1026.1 hPa | - | - | - | - |
| 1788281992 | 27.22° C | 33% | 1025.9 hPa | - | - | - | - |
| 1788278452 | 27.78° C | 31% | 1026 hPa | - | - | - | - |
| 1788274912 | 27.22° C | 32% | 1026.1 hPa | - | - | - | - |
| 1788271371 | 27.22° C | 32% | 1026.1 hPa | - | - | - | - |
| 1788267831 | 27.22° C | 32% | 1026.4 hPa | - | - | - | - |
| 1788260751 | 27.22° C | 34% | 1026.9 hPa | - | - | - | - |
| 1788257211 | 26.67° C | 35% | 1027.1 hPa | - | - | - | - |
| 1788253671 | 27.22° C | 36% | 1027 hPa | - | - | - | - |
| 1788250131 | 26.67° C | 39% | 1027 hPa | - | - | - | - |
| 1788246591 | 26.11° C | 39% | 1026.4 hPa | - | - | - | - |
| 1788243050 | 26.11° C | 39% | 1025.9 hPa | - | - | - | - |
| 1788239510 | 26.11° C | 38% | 1024.9 hPa | - | - | - | - |
| 1788235977 | 26.67° C | 38% | 1024.2 hPa | - | - | - | - |
| 1788235970 | 26.67° C | 38% | 1024.2 hPa | - | - | - | - |
| 1788213310 | 27.78° C | 34% | 1022 hPa | - | - | - | - |
| 1788209773 | 28.33° C | 31% | - | - | - | - | - |
| 1788209770 | 28.33° C | 31% | 1022.6 hPa | - | - | - | - |
| 1788199149 | 28.89° C | 28% | 1020.6 hPa | - | - | - | - |
* Rain since midnight (hover to see other rain measurements)
** Current wind speed in m/s (hover to see current wind gust speed)